createdAt,value
2023-01-23T00:03:10.189Z,17.37
2023-01-23T00:08:17.965Z,15.67
2023-01-23T00:13:23.553Z,16.30
2023-01-23T09:03:47.521Z,12.67
2023-01-23T09:08:52.741Z,13.57
2023-01-23T09:13:58.076Z,12.40
2023-01-23T09:19:05.745Z,13.33
2023-01-23T09:24:11.372Z,13.10
2023-01-23T09:29:17.593Z,12.83
2023-01-23T09:34:25.249Z,11.73
2023-01-23T09:39:30.525Z,12.87
2023-01-23T09:44:39.590Z,13.07
2023-01-23T09:49:50.078Z,13.00
2023-01-23T09:54:58.495Z,12.73
2023-01-23T10:00:08.107Z,12.63
2023-01-23T10:05:19.312Z,12.47
2023-01-23T10:10:56.331Z,12.10
2023-01-23T10:16:13.678Z,12.63
2023-01-23T10:21:28.262Z,12.87
2023-01-23T10:26:35.868Z,12.00
2023-01-23T10:31:42.562Z,12.03
2023-01-23T10:37:02.040Z,12.40
2023-01-23T10:42:12.571Z,12.00
2023-01-23T10:47:22.845Z,11.97
2023-01-23T10:52:37.706Z,11.57
2023-01-23T10:57:49.243Z,12.07
2023-01-23T11:02:54.779Z,11.37
2023-01-23T11:08:02.919Z,10.33
2023-01-23T11:13:08.212Z,11.77
2023-01-23T11:18:34.520Z,10.57
2023-01-23T11:23:42.258Z,10.47
2023-01-23T11:28:51.492Z,10.63
2023-01-23T11:34:01.565Z,9.53
2023-01-23T11:39:17.019Z,9.00
2023-01-23T11:44:24.435Z,9.47
2023-01-23T11:49:43.461Z,9.63
2023-01-23T11:55:05.161Z,9.47
2023-01-23T12:00:26.176Z,8.70
2023-01-23T12:06:17.621Z,9.00
2023-01-23T12:11:27.231Z,9.40
2023-01-23T12:16:45.281Z,8.03
2023-01-23T12:21:55.250Z,7.57
2023-01-23T12:27:20.175Z,8.20
2023-01-23T12:32:38.935Z,7.20
2023-01-23T12:37:58.874Z,6.47
2023-01-23T12:43:11.560Z,6.57
2023-01-23T12:48:19.202Z,5.00
2023-01-23T12:53:26.519Z,5.33
2023-01-23T12:58:38.271Z,5.60
2023-01-23T13:03:57.529Z,5.27
2023-01-23T13:09:17.545Z,5.40
2023-01-23T13:15:06.866Z,5.60
2023-01-23T13:20:39.091Z,5.70
2023-01-23T13:25:44.174Z,5.20
2023-01-23T13:31:02.327Z,5.63
2023-01-23T13:36:16.411Z,5.63
2023-01-23T13:41:34.348Z,5.00
2023-01-23T14:20:23.766Z,5.30
2023-01-23T14:25:29.674Z,4.53
2023-01-23T14:30:34.827Z,4.97
2023-01-23T14:35:42.757Z,5.13
2023-01-23T14:40:50.977Z,5.13
2023-01-23T14:46:02.734Z,5.67
2023-01-23T14:51:21.203Z,5.43
2023-01-23T14:56:30.576Z,5.00
2023-01-23T15:01:36.485Z,5.87
2023-01-23T15:06:45.021Z,7.80
2023-01-23T15:11:50.299Z,8.57
2023-01-23T15:17:02.115Z,8.60
2023-01-23T15:22:22.022Z,8.50
2023-01-23T15:27:29.400Z,9.10
2023-01-23T15:32:35.658Z,8.83
2023-01-23T15:37:43.724Z,10.20
2023-01-23T15:43:04.179Z,9.33
2023-01-23T15:48:10.140Z,9.57
2023-01-23T15:53:18.789Z,9.73
2023-01-23T15:58:24.156Z,9.73
2023-01-23T16:03:29.586Z,10.93
2023-01-23T16:08:37.416Z,11.00
2023-01-23T16:13:42.692Z,10.30
2023-01-23T16:18:48.058Z,11.77
2023-01-23T16:23:56.500Z,10.57
2023-01-23T16:29:13.063Z,10.47
2023-01-23T16:34:19.363Z,11.33
2023-01-23T16:39:29.520Z,10.90
2023-01-23T16:44:35.027Z,11.47
2023-01-23T16:49:51.583Z,11.10
2023-01-23T16:55:00.301Z,11.23
2023-01-23T17:00:06.886Z,10.80
2023-01-23T17:05:13.451Z,10.90
2023-01-23T17:10:24.049Z,11.53
2023-01-23T17:15:31.564Z,11.70
2023-01-23T17:20:39.050Z,11.17
2023-01-23T17:25:59.820Z,11.23
2023-01-23T17:31:06.740Z,10.03
2023-01-23T17:36:12.367Z,9.83
2023-01-23T17:41:20.399Z,10.20
2023-01-23T17:46:27.476Z,9.93
2023-01-23T17:51:34.212Z,11.20
2023-01-23T17:56:42.283Z,9.70
2023-01-23T18:01:47.802Z,10.70
2023-01-23T18:06:53.202Z,9.97
2023-01-23T18:12:04.981Z,10.03
2023-01-23T18:17:23.058Z,10.47
2023-01-23T18:22:29.373Z,11.13
2023-01-23T18:27:37.531Z,10.80
2023-01-23T18:33:11.450Z,10.27
2023-01-23T18:38:20.278Z,10.17
2023-01-23T18:43:39.129Z,10.90
2023-01-23T18:48:45.661Z,9.53
2023-01-23T18:53:58.218Z,9.73
2023-01-23T18:59:16.392Z,11.07
2023-01-23T19:04:23.432Z,10.40
2023-01-23T19:09:30.809Z,9.67
2023-01-23T19:14:53.345Z,8.40
2023-01-23T19:20:04.055Z,9.50
2023-01-23T22:34:40.186Z,9.93
2023-01-23T22:39:45.309Z,8.87
2023-01-23T22:44:50.389Z,9.17
2023-01-23T22:49:58.059Z,9.53
2023-01-23T22:55:03.154Z,9.67
2023-01-23T23:00:10.734Z,9.13
2023-01-23T23:05:19.168Z,9.37
2023-01-23T23:10:24.324Z,10.43
2023-01-23T23:15:29.500Z,8.37
2023-01-23T23:20:37.243Z,8.17
2023-01-23T23:25:42.314Z,8.47
2023-01-23T23:30:47.375Z,7.60
2023-01-23T23:35:56.587Z,8.23
